GLO4002 SBPL-SBSV
Flight info
| Callsign | GLO4002 |
|---|---|
| Flight time | 0h 50m |
| Altitude | 34000 |
| Route | EDMUP DCT DORMU |
| Aircraft | B738/M-SDE2E3FGHIRWXY/LB1 |
Departure
| Time | 2026-04-23 00:14 |
|---|---|
| Airport | Senador Nilo Coelho Airport (SBPL) |
Arrival
| Time | 2026-04-23 01:04 |
|---|---|
| Airport | Deputado Luiz Eduardo Magalhães International Airport (SBSV) |
| Time | Latitude | Longitude | Altitude | Speed | Heading |
|---|---|---|---|---|---|
| 2026-04-22 23:47 | -9.36548 | -40.56687 | 1254 ft | 0 kts | 153° |
| 2026-04-23 00:07 | -9.36542 | -40.56690 | 1247 ft | 2 kts | 154° |
| 2026-04-23 00:07 | -9.36526 | -40.56695 | 1247 ft | 2 kts | 169° |
| 2026-04-23 00:07 | -9.36509 | -40.56697 | 1275 ft | 2 kts | 178° |
| 2026-04-23 00:08 | -9.36498 | -40.56701 | 1277 ft | 1 kts | 112° |
| 2026-04-23 00:09 | -9.36499 | -40.56698 | 1277 ft | 2 kts | 114° |
| 2026-04-23 00:09 | -9.36504 | -40.56683 | 1279 ft | 6 kts | 109° |
| 2026-04-23 00:09 | -9.36522 | -40.56629 | 1274 ft | 11 kts | 103° |
| 2026-04-23 00:10 | -9.36469 | -40.56575 | 1276 ft | 14 kts | 22° |
| 2026-04-23 00:10 | -9.36419 | -40.56559 | 1272 ft | 16 kts | 8° |
| 2026-04-23 00:10 | -9.36363 | -40.56578 | 1272 ft | 11 kts | 311° |
| 2026-04-23 00:10 | -9.36328 | -40.56677 | 1274 ft | 19 kts | 289° |
| 2026-04-23 00:11 | -9.36277 | -40.56828 | 1273 ft | 26 kts | 289° |
| 2026-04-23 00:11 | -9.36202 | -40.57052 | 1274 ft | 37 kts | 289° |
| 2026-04-23 00:11 | -9.36082 | -40.57401 | 1273 ft | 48 kts | 289° |
| 2026-04-23 00:11 | -9.35911 | -40.57904 | 1273 ft | 58 kts | 289° |
| 2026-04-23 00:12 | -9.35828 | -40.58146 | 1275 ft | 49 kts | 289° |
| 2026-04-23 00:12 | -9.35814 | -40.58285 | 1272 ft | 5 kts | 285° |
| 2026-04-23 00:12 | -9.35792 | -40.58296 | 1272 ft | 3 kts | 13° |
| 2026-04-23 00:12 | -9.35784 | -40.58276 | 1272 ft | 4 kts | 92° |
| 2026-04-23 00:13 | -9.35789 | -40.58255 | 1273 ft | 1 kts | 108° |
| 2026-04-23 00:13 | -9.35830 | -40.58132 | 1271 ft | 56 kts | 108° |
| 2026-04-23 00:13 | -9.36049 | -40.57494 | 1270 ft | 136 kts | 109° |
| 2026-04-23 00:13 | -9.36411 | -40.56431 | 1528 ft | 175 kts | 108° |
| 2026-04-23 00:14 | -9.36773 | -40.55236 | 2692 ft | 165 kts | 113° |
| 2026-04-23 00:14 | -9.37480 | -40.54386 | 3487 ft | 173 kts | 151° |
| 2026-04-23 00:14 | -9.38781 | -40.54175 | 3647 ft | 210 kts | 174° |
| 2026-04-23 00:14 | -9.40370 | -40.54113 | 4004 ft | 230 kts | 173° |
| 2026-04-23 00:15 | -9.42029 | -40.54003 | 4635 ft | 239 kts | 172° |
| 2026-04-23 00:15 | -9.43775 | -40.53848 | 5103 ft | 257 kts | 171° |
| 2026-04-23 00:15 | -9.45584 | -40.53655 | 5975 ft | 259 kts | 171° |
| 2026-04-23 00:15 | -9.47375 | -40.53442 | 6827 ft | 260 kts | 170° |
| 2026-04-23 00:16 | -9.49188 | -40.53208 | 7561 ft | 265 kts | 170° |
| 2026-04-23 00:16 | -9.51034 | -40.52957 | 8348 ft | 268 kts | 169° |
| 2026-04-23 00:16 | -9.52897 | -40.52696 | 9160 ft | 271 kts | 169° |
| 2026-04-23 00:16 | -9.54786 | -40.52425 | 9915 ft | 276 kts | 169° |
| 2026-04-23 00:17 | -9.56706 | -40.52147 | 10633 ft | 279 kts | 169° |
| 2026-04-23 00:17 | -9.58646 | -40.51864 | 11346 ft | 283 kts | 169° |
| 2026-04-23 00:17 | -9.60611 | -40.51576 | 12052 ft | 287 kts | 169° |
| 2026-04-23 00:17 | -9.62614 | -40.51281 | 12765 ft | 291 kts | 169° |
| 2026-04-23 00:18 | -9.64799 | -40.50960 | 13513 ft | 295 kts | 169° |
| 2026-04-23 00:18 | -9.68542 | -40.50404 | 14646 ft | 302 kts | 168° |
| 2026-04-23 00:18 | -9.70601 | -40.49972 | 15259 ft | 305 kts | 164° |
| 2026-04-23 00:18 | -9.72722 | -40.49423 | 15881 ft | 309 kts | 162° |
| 2026-04-23 00:19 | -9.74785 | -40.48862 | 16479 ft | 313 kts | 162° |
| 2026-04-23 00:19 | -9.78199 | -40.47933 | 17437 ft | 320 kts | 163° |
| 2026-04-23 00:19 | -9.87128 | -40.45536 | 19678 ft | 333 kts | 164° |
| 2026-04-23 00:19 | -9.89388 | -40.44943 | 20186 ft | 338 kts | 165° |
| 2026-04-23 00:20 | -9.91670 | -40.44348 | 20690 ft | 342 kts | 165° |
| 2026-04-23 00:20 | -9.93992 | -40.43744 | 21247 ft | 343 kts | 165° |
| 2026-04-23 00:20 | -9.96305 | -40.43141 | 21812 ft | 345 kts | 165° |
| 2026-04-23 00:20 | -9.98680 | -40.42520 | 22263 ft | 351 kts | 165° |
| 2026-04-23 00:21 | -10.01059 | -40.41897 | 22819 ft | 352 kts | 165° |
| 2026-04-23 00:21 | -10.03416 | -40.41280 | 23366 ft | 354 kts | 165° |
| 2026-04-23 00:21 | -10.05806 | -40.40654 | 23868 ft | 355 kts | 165° |
| 2026-04-23 00:21 | -10.08203 | -40.40026 | 24350 ft | 355 kts | 165° |
| 2026-04-23 00:22 | -10.10655 | -40.39382 | 24907 ft | 353 kts | 165° |
| 2026-04-23 00:22 | -10.13027 | -40.38760 | 25430 ft | 352 kts | 164° |
| 2026-04-23 00:22 | -10.15406 | -40.38136 | 25912 ft | 353 kts | 164° |
| 2026-04-23 00:22 | -10.17772 | -40.37515 | 26401 ft | 353 kts | 164° |
| 2026-04-23 00:23 | -10.20183 | -40.36882 | 26870 ft | 353 kts | 164° |
| 2026-04-23 00:23 | -10.22567 | -40.36255 | 27352 ft | 353 kts | 164° |
| 2026-04-23 00:23 | -10.24963 | -40.35626 | 27717 ft | 357 kts | 164° |
| 2026-04-23 00:23 | -10.27384 | -40.34990 | 28078 ft | 360 kts | 164° |
| 2026-04-23 00:24 | -10.29805 | -40.34354 | 28601 ft | 358 kts | 164° |
| 2026-04-23 00:24 | -10.32262 | -40.33709 | 28980 ft | 362 kts | 164° |
| 2026-04-23 00:24 | -10.34704 | -40.33067 | 29349 ft | 364 kts | 164° |
| 2026-04-23 00:24 | -10.37168 | -40.32419 | 29784 ft | 365 kts | 164° |
| 2026-04-23 00:25 | -10.39657 | -40.31765 | 30214 ft | 365 kts | 164° |
| 2026-04-23 00:25 | -10.42127 | -40.31115 | 30524 ft | 368 kts | 164° |
| 2026-04-23 00:25 | -10.44647 | -40.30452 | 30771 ft | 372 kts | 164° |
| 2026-04-23 00:25 | -10.47167 | -40.29789 | 31048 ft | 375 kts | 164° |
| 2026-04-23 00:26 | -10.49694 | -40.29125 | 31330 ft | 377 kts | 164° |
| 2026-04-23 00:26 | -10.52249 | -40.28453 | 31606 ft | 380 kts | 164° |
| 2026-04-23 00:26 | -10.54851 | -40.27768 | 31875 ft | 383 kts | 164° |
| 2026-04-23 00:26 | -10.57509 | -40.27068 | 32147 ft | 385 kts | 164° |
| 2026-04-23 00:27 | -10.60109 | -40.26384 | 32409 ft | 387 kts | 164° |
| 2026-04-23 00:27 | -10.62725 | -40.25695 | 32656 ft | 390 kts | 164° |
| 2026-04-23 00:27 | -10.65362 | -40.25001 | 32890 ft | 393 kts | 164° |
| 2026-04-23 00:27 | -10.68017 | -40.24302 | 33132 ft | 395 kts | 164° |
| 2026-04-23 00:28 | -10.70683 | -40.23599 | 33393 ft | 397 kts | 164° |
| 2026-04-23 00:28 | -10.73366 | -40.22893 | 33667 ft | 398 kts | 164° |
| 2026-04-23 00:28 | -10.76062 | -40.22182 | 33909 ft | 400 kts | 164° |
| 2026-04-23 00:28 | -10.78767 | -40.21469 | 34072 ft | 403 kts | 164° |
| 2026-04-23 00:29 | -10.81512 | -40.20745 | 34062 ft | 410 kts | 164° |
| 2026-04-23 00:29 | -10.87234 | -40.19236 | 34083 ft | 422 kts | 164° |
| 2026-04-23 00:30 | -10.92991 | -40.17717 | 34080 ft | 433 kts | 164° |
| 2026-04-23 00:30 | -10.98863 | -40.16168 | 34065 ft | 438 kts | 164° |
| 2026-04-23 00:31 | -11.03785 | -40.14869 | 34073 ft | 439 kts | 164° |
| 2026-04-23 00:31 | -11.09789 | -40.13284 | 34068 ft | 440 kts | 164° |
| 2026-04-23 00:32 | -11.15759 | -40.11707 | 34069 ft | 439 kts | 164° |
| 2026-04-23 00:32 | -11.21661 | -40.10147 | 34069 ft | 436 kts | 164° |
| 2026-04-23 00:33 | -11.27523 | -40.08596 | 34066 ft | 434 kts | 164° |
| 2026-04-23 00:33 | -11.33385 | -40.07046 | 34071 ft | 431 kts | 164° |
| 2026-04-23 00:34 | -11.39271 | -40.05488 | 34071 ft | 429 kts | 164° |
| 2026-04-23 00:34 | -11.45052 | -40.03956 | 34067 ft | 427 kts | 164° |
| 2026-04-23 00:35 | -11.50743 | -40.02449 | 34067 ft | 419 kts | 164° |
| 2026-04-23 00:35 | -11.56494 | -40.00924 | 34059 ft | 419 kts | 164° |
| 2026-04-23 00:35 | -11.59331 | -40.00005 | 33661 ft | 419 kts | 153° |
| 2026-04-23 00:36 | -11.61845 | -39.98309 | 33325 ft | 411 kts | 140° |
| 2026-04-23 00:36 | -11.64018 | -39.96426 | 32932 ft | 408 kts | 139° |
| 2026-04-23 00:36 | -11.66137 | -39.94534 | 32528 ft | 405 kts | 139° |
| 2026-04-23 00:36 | -11.68276 | -39.92616 | 32136 ft | 402 kts | 139° |
| 2026-04-23 00:37 | -11.70370 | -39.90748 | 31749 ft | 399 kts | 139° |
| 2026-04-23 00:37 | -11.72468 | -39.88887 | 31373 ft | 396 kts | 139° |
| 2026-04-23 00:37 | -11.74535 | -39.87066 | 30993 ft | 394 kts | 140° |
| 2026-04-23 00:37 | -11.76602 | -39.85251 | 30616 ft | 391 kts | 140° |
| 2026-04-23 00:38 | -11.78662 | -39.83446 | 30244 ft | 389 kts | 140° |
| 2026-04-23 00:38 | -11.80737 | -39.81630 | 29814 ft | 386 kts | 140° |
| 2026-04-23 00:38 | -11.82768 | -39.79853 | 29394 ft | 383 kts | 140° |
| 2026-04-23 00:38 | -11.84814 | -39.78063 | 28977 ft | 380 kts | 139° |
| 2026-04-23 00:39 | -11.86844 | -39.76286 | 28573 ft | 377 kts | 139° |
| 2026-04-23 00:39 | -11.88154 | -39.75140 | 28313 ft | 375 kts | 139° |
| 2026-04-23 00:39 | -11.90134 | -39.73406 | 27927 ft | 373 kts | 139° |
| 2026-04-23 00:39 | -11.92123 | -39.71664 | 27539 ft | 370 kts | 139° |
| 2026-04-23 00:40 | -11.94095 | -39.69937 | 27151 ft | 368 kts | 138° |
| 2026-04-23 00:40 | -11.96006 | -39.68262 | 26782 ft | 366 kts | 138° |
| 2026-04-23 00:40 | -11.97957 | -39.66553 | 26411 ft | 364 kts | 138° |
| 2026-04-23 00:40 | -11.99897 | -39.64852 | 26029 ft | 362 kts | 138° |
| 2026-04-23 00:41 | -12.01807 | -39.63177 | 25658 ft | 361 kts | 137° |
| 2026-04-23 00:41 | -12.03685 | -39.61531 | 25276 ft | 360 kts | 137° |
| 2026-04-23 00:41 | -12.05542 | -39.59902 | 24899 ft | 360 kts | 137° |
| 2026-04-23 00:41 | -12.07531 | -39.58157 | 24506 ft | 359 kts | 137° |
| 2026-04-23 00:42 | -12.09427 | -39.56493 | 24123 ft | 359 kts | 136° |
| 2026-04-23 00:42 | -12.11322 | -39.54830 | 23747 ft | 359 kts | 136° |
| 2026-04-23 00:42 | -12.13238 | -39.53148 | 23311 ft | 359 kts | 136° |
| 2026-04-23 00:42 | -12.15125 | -39.51491 | 22910 ft | 357 kts | 136° |
| 2026-04-23 00:43 | -12.17002 | -39.49842 | 22531 ft | 355 kts | 137° |
| 2026-04-23 00:43 | -12.18874 | -39.48198 | 22156 ft | 353 kts | 137° |
| 2026-04-23 00:43 | -12.20757 | -39.46543 | 21790 ft | 351 kts | 137° |
| 2026-04-23 00:43 | -12.22611 | -39.44915 | 21418 ft | 350 kts | 137° |
| 2026-04-23 00:44 | -12.24452 | -39.43296 | 21049 ft | 349 kts | 137° |
| 2026-04-23 00:44 | -12.26279 | -39.41690 | 20687 ft | 348 kts | 137° |
| 2026-04-23 00:44 | -12.28106 | -39.40084 | 20315 ft | 347 kts | 138° |
| 2026-04-23 00:44 | -12.34154 | -39.34764 | 19170 ft | 343 kts | 138° |
| 2026-04-23 00:45 | -12.37161 | -39.32118 | 18472 ft | 338 kts | 139° |
| 2026-04-23 00:45 | -12.38905 | -39.30582 | 18089 ft | 334 kts | 139° |
| 2026-04-23 00:45 | -12.40544 | -39.29139 | 17740 ft | 329 kts | 138° |
| 2026-04-23 00:45 | -12.42280 | -39.27611 | 17379 ft | 324 kts | 138° |
| 2026-04-23 00:46 | -12.44008 | -39.26093 | 16922 ft | 322 kts | 138° |
| 2026-04-23 00:46 | -12.45718 | -39.24602 | 16466 ft | 321 kts | 139° |
| 2026-04-23 00:46 | -12.47453 | -39.23092 | 16075 ft | 318 kts | 139° |
| 2026-04-23 00:46 | -12.49065 | -39.21690 | 15763 ft | 312 kts | 138° |
| 2026-04-23 00:47 | -12.50756 | -39.20218 | 15431 ft | 307 kts | 138° |
| 2026-04-23 00:47 | -12.52371 | -39.18811 | 15118 ft | 302 kts | 138° |
| 2026-04-23 00:47 | -12.53928 | -39.17454 | 14817 ft | 298 kts | 138° |
| 2026-04-23 00:47 | -12.55546 | -39.16044 | 14509 ft | 297 kts | 138° |
| 2026-04-23 00:48 | -12.57121 | -39.14669 | 14211 ft | 300 kts | 138° |
| 2026-04-23 00:48 | -12.58712 | -39.13281 | 13887 ft | 308 kts | 138° |
| 2026-04-23 00:48 | -12.60352 | -39.11850 | 13538 ft | 311 kts | 138° |
| 2026-04-23 00:48 | -12.62018 | -39.10396 | 13184 ft | 309 kts | 138° |
| 2026-04-23 00:49 | -12.63636 | -39.08983 | 12856 ft | 308 kts | 138° |
| 2026-04-23 00:49 | -12.65270 | -39.07557 | 12528 ft | 306 kts | 138° |
| 2026-04-23 00:49 | -12.66872 | -39.06158 | 12207 ft | 305 kts | 138° |
| 2026-04-23 00:49 | -12.68479 | -39.04754 | 11890 ft | 303 kts | 138° |
| 2026-04-23 00:50 | -12.70074 | -39.03360 | 11576 ft | 301 kts | 138° |
| 2026-04-23 00:50 | -12.71689 | -39.01951 | 11250 ft | 300 kts | 138° |
| 2026-04-23 00:50 | -12.73290 | -39.00551 | 11007 ft | 295 kts | 138° |
| 2026-04-23 00:50 | -12.74831 | -38.99202 | 10733 ft | 293 kts | 138° |
| 2026-04-23 00:51 | -12.76363 | -38.97859 | 10440 ft | 291 kts | 138° |
| 2026-04-23 00:51 | -12.77899 | -38.96513 | 10237 ft | 286 kts | 138° |
| 2026-04-23 00:51 | -12.79404 | -38.95193 | 10103 ft | 279 kts | 138° |
| 2026-04-23 00:51 | -12.80392 | -38.94327 | 9920 ft | 278 kts | 138° |
| 2026-04-23 00:52 | -12.81867 | -38.93033 | 9617 ft | 277 kts | 138° |
| 2026-04-23 00:52 | -12.83346 | -38.91736 | 9310 ft | 275 kts | 138° |
| 2026-04-23 00:52 | -12.84818 | -38.90446 | 9021 ft | 274 kts | 138° |
| 2026-04-23 00:52 | -12.86198 | -38.89148 | 8721 ft | 272 kts | 128° |
| 2026-04-23 00:53 | -12.87124 | -38.87430 | 8476 ft | 267 kts | 112° |
| 2026-04-23 00:53 | -12.87758 | -38.85673 | 8180 ft | 267 kts | 110° |
| 2026-04-23 00:53 | -12.88364 | -38.83879 | 7896 ft | 265 kts | 110° |
| 2026-04-23 00:53 | -12.88955 | -38.82124 | 7720 ft | 258 kts | 110° |
| 2026-04-23 00:54 | -12.89532 | -38.80421 | 7635 ft | 242 kts | 110° |
| 2026-04-23 00:54 | -12.90075 | -38.78836 | 7526 ft | 229 kts | 110° |
| 2026-04-23 00:54 | -12.90589 | -38.77340 | 7424 ft | 216 kts | 110° |
| 2026-04-23 00:54 | -12.91076 | -38.75932 | 7319 ft | 204 kts | 110° |
| 2026-04-23 00:55 | -12.91542 | -38.74585 | 7086 ft | 199 kts | 110° |
| 2026-04-23 00:55 | -12.91976 | -38.73336 | 6799 ft | 198 kts | 111° |
| 2026-04-23 00:55 | -12.92435 | -38.72015 | 6512 ft | 196 kts | 111° |
| 2026-04-23 00:55 | -12.92892 | -38.70698 | 6182 ft | 196 kts | 111° |
| 2026-04-23 00:56 | -12.93350 | -38.69382 | 5867 ft | 195 kts | 111° |
| 2026-04-23 00:56 | -12.93804 | -38.68077 | 5563 ft | 194 kts | 111° |
| 2026-04-23 00:56 | -12.94256 | -38.66777 | 5262 ft | 192 kts | 111° |
| 2026-04-23 00:56 | -12.94690 | -38.65527 | 4969 ft | 190 kts | 111° |
| 2026-04-23 00:57 | -12.95134 | -38.64253 | 4666 ft | 188 kts | 111° |
| 2026-04-23 00:57 | -12.95572 | -38.62989 | 4446 ft | 183 kts | 111° |
| 2026-04-23 00:57 | -12.95947 | -38.61911 | 4233 ft | 179 kts | 111° |
| 2026-04-23 00:57 | -12.96356 | -38.60694 | 4041 ft | 180 kts | 105° |
| 2026-04-23 00:58 | -12.96262 | -38.59391 | 3891 ft | 185 kts | 81° |
| 2026-04-23 00:58 | -12.95999 | -38.58102 | 3729 ft | 190 kts | 83° |
| 2026-04-23 00:58 | -12.95758 | -38.56833 | 3572 ft | 191 kts | 83° |
| 2026-04-23 00:58 | -12.95502 | -38.55509 | 3396 ft | 190 kts | 83° |
| 2026-04-23 00:59 | -12.95247 | -38.54216 | 3227 ft | 189 kts | 83° |
| 2026-04-23 00:59 | -12.94972 | -38.52830 | 3040 ft | 187 kts | 82° |
| 2026-04-23 00:59 | -12.94733 | -38.51632 | 2894 ft | 185 kts | 82° |
| 2026-04-23 00:59 | -12.94488 | -38.50399 | 2755 ft | 186 kts | 82° |
| 2026-04-23 01:00 | -12.94216 | -38.49034 | 2561 ft | 185 kts | 83° |
| 2026-04-23 01:00 | -12.93954 | -38.47721 | 2420 ft | 187 kts | 82° |
| 2026-04-23 01:00 | -12.93716 | -38.46527 | 2240 ft | 188 kts | 82° |
| 2026-04-23 01:00 | -12.93455 | -38.45218 | 2093 ft | 186 kts | 82° |
| 2026-04-23 01:01 | -12.93276 | -38.44326 | 1977 ft | 184 kts | 82° |
| 2026-04-23 01:01 | -12.92947 | -38.42689 | 1785 ft | 173 kts | 82° |
| 2026-04-23 01:01 | -12.92709 | -38.41499 | 1580 ft | 169 kts | 82° |
| 2026-04-23 01:01 | -12.92476 | -38.40356 | 1393 ft | 156 kts | 82° |
| 2026-04-23 01:02 | -12.92268 | -38.39319 | 1216 ft | 146 kts | 84° |
| 2026-04-23 01:02 | -12.92129 | -38.38621 | 1069 ft | 143 kts | 82° |
| 2026-04-23 01:02 | -12.91930 | -38.37628 | 880 ft | 143 kts | 83° |
| 2026-04-23 01:02 | -12.91735 | -38.36641 | 702 ft | 141 kts | 82° |
| 2026-04-23 01:03 | -12.91545 | -38.35727 | 460 ft | 124 kts | 84° |
| 2026-04-23 01:03 | -12.91406 | -38.34868 | 236 ft | 133 kts | 83° |
| 2026-04-23 01:03 | -12.91202 | -38.33979 | 117 ft | 119 kts | 81° |
| 2026-04-23 01:03 | -12.91033 | -38.33103 | 47 ft | 117 kts | 83° |
| 2026-04-23 01:04 | -12.90899 | -38.32385 | 53 ft | 85 kts | 76° |
| 2026-04-23 01:04 | -12.90784 | -38.31930 | 55 ft | 49 kts | 77° |
| 2026-04-23 01:04 | -12.90726 | -38.31744 | 62 ft | 1 kts | 158° |
| 2026-04-23 01:05 | -12.90750 | -38.31754 | 55 ft | 7 kts | 219° |
| 2026-04-23 01:05 | -12.90778 | -38.31838 | 58 ft | 21 kts | 257° |
| 2026-04-23 01:05 | -12.90818 | -38.32048 | 55 ft | 38 kts | 259° |
| 2026-04-23 01:05 | -12.90952 | -38.32251 | 52 ft | 35 kts | 217° |
| 2026-04-23 01:06 | -12.91046 | -38.32455 | 50 ft | 31 kts | 259° |
| 2026-04-23 01:06 | -12.91129 | -38.32547 | 51 ft | 13 kts | 218° |
| 2026-04-23 01:06 | -12.91159 | -38.32607 | 50 ft | 9 kts | 262° |
| 2026-04-23 01:06 | -12.91165 | -38.32654 | 50 ft | 11 kts | 262° |
| 2026-04-23 01:07 | -12.91183 | -38.32771 | 48 ft | 19 kts | 259° |
| 2026-04-23 01:07 | -12.91205 | -38.32879 | 45 ft | 26 kts | 258° |
| 2026-04-23 01:07 | -12.91247 | -38.33093 | 42 ft | 34 kts | 258° |
| 2026-04-23 01:07 | -12.91294 | -38.33261 | 42 ft | 9 kts | 220° |
| 2026-04-23 01:08 | -12.91341 | -38.33273 | 42 ft | 7 kts | 175° |
| 2026-04-23 01:08 | -12.91343 | -38.33272 | 42 ft | 0 kts | 175° |